EPZG

Details ICAO EPZG (IEG)
Name ZIELONA GORA BABIMOST
Region Poland
Timezone Europe/Warsaw (UTC+2.0)
Plans Departing 115
Arriving 124
Stats Elevation 193 ft / 59 m (AMSL)
Location 52.138600° 15.798400°
Runways 1
Magnetic Variation 4.801° E
Sunrise 2020-10-22 05:35:33 UTC / 2020-10-22 07:35:33 Local
Sunset 2020-10-22 15:49:13 UTC / 2020-10-22 17:49:13 Local
Advertisement - Login to hide

Runways

ID Width Length Bearing (true/mag) Surface Threshold Overrun Markings Lighting
06 197 ft / 60 m 8,169 ft / 2,490 m 64.50° / 59.70° CONCRETE 0 ft / 0 m 0 ft / 0 m UK-APP EDGE THRESHOLD
24 197 ft / 60 m 8,169 ft / 2,490 m 244.52° / 239.72° CONCRETE 0 ft / 0 m 0 ft / 0 m UK-APP EDGE THRESHOLD

Map

Weather


0- 5 10 15 20 25 30 35+ Temperature / °C

Clouds and Precipitation
Forecast for 2020-10-22 06:00 UTC. Updated 39 minutes ago

Ground ~20,000 ft ~40,000 ft Winds

METAR

EPZG 220400Z 18005KT CAVOK 11/08 Q1011

TAF

Not found

Frequencies

Tower 118.75 MHz ZIELONA GORA TOWER
Warning: Do not use this data for real-world aviation or navigation. No guarantee of current accuracy is given.